createdAt,value
2023-03-28T00:01:08.428Z,2.78
2023-03-28T00:03:42.554Z,2.90
2023-03-28T00:06:18.931Z,3.38
2023-03-28T00:08:52.585Z,3.10
2023-03-28T00:11:24.963Z,3.10
2023-03-28T00:14:02.250Z,3.20
2023-03-28T00:16:37.856Z,2.75
2023-03-28T00:19:17.932Z,3.05
2023-03-28T00:21:51.515Z,3.13
2023-03-28T00:24:26.226Z,3.35
2023-03-28T00:27:00.477Z,3.28
2023-03-28T00:29:32.884Z,2.80
2023-03-28T00:32:05.939Z,2.78
2023-03-28T00:34:38.343Z,3.53
2023-03-28T00:37:10.714Z,2.85
2023-03-28T00:39:51.236Z,3.25
2023-03-28T00:42:24.603Z,2.92
2023-03-28T00:44:58.072Z,3.28
2023-03-28T00:47:40.676Z,2.60
2023-03-28T00:50:31.159Z,2.72
2023-03-28T00:53:13.834Z,2.55
2023-03-28T00:56:02.329Z,2.97
2023-03-28T00:58:43.590Z,2.65
2023-03-28T01:01:19.709Z,3.38
2023-03-28T01:04:03.039Z,2.80
2023-03-28T01:06:41.731Z,2.70
2023-03-28T01:09:18.829Z,3.05
2023-03-28T01:11:53.791Z,3.05
2023-03-28T01:14:29.096Z,2.70
2023-03-28T01:17:10.894Z,2.97
2023-03-28T01:20:10.534Z,3.00
2023-03-28T01:23:26.322Z,2.80
2023-03-28T01:26:55.488Z,3.03
2023-03-28T01:30:07.751Z,3.17
2023-03-28T01:33:30.916Z,2.47
2023-03-28T01:36:57.138Z,2.75
2023-03-28T01:39:51.794Z,3.30
2023-03-28T01:43:01.896Z,3.40
2023-03-28T01:46:11.820Z,3.65
2023-03-28T01:48:57.194Z,3.00
2023-03-28T01:52:01.116Z,3.47
2023-03-28T01:54:58.755Z,3.40
2023-03-28T01:58:02.173Z,3.95
2023-03-28T02:00:49.853Z,3.53
2023-03-28T02:03:46.359Z,3.40
2023-03-28T02:06:24.332Z,4.30
2023-03-28T02:08:58.557Z,3.83
2023-03-28T02:11:32.961Z,3.42
2023-03-28T02:14:11.113Z,3.58
2023-03-28T02:16:50.986Z,3.40
2023-03-28T02:19:29.681Z,4.68
2023-03-28T02:22:19.024Z,3.90
2023-03-28T02:25:10.323Z,3.10
2023-03-28T02:27:46.165Z,3.83
2023-03-28T02:30:22.903Z,3.83
2023-03-28T02:33:03.838Z,4.05
2023-03-28T02:36:00.017Z,3.28
2023-03-28T02:39:26.190Z,3.88
2023-03-28T02:42:41.308Z,3.75
2023-03-28T02:45:45.222Z,3.28
2023-03-28T02:49:07.925Z,3.75
2023-03-28T02:52:00.199Z,3.50
2023-03-28T02:55:17.414Z,3.50
2023-03-28T02:58:08.288Z,3.30
2023-03-28T03:00:51.226Z,4.03
2023-03-28T03:03:23.795Z,3.42
2023-03-28T03:05:58.368Z,3.80
2023-03-28T03:08:31.915Z,2.80
2023-03-28T03:11:04.145Z,3.70
2023-03-28T03:13:36.954Z,3.33
2023-03-28T03:16:09.235Z,3.60
2023-03-28T03:18:41.644Z,3.60
2023-03-28T03:21:13.896Z,3.20
2023-03-28T03:23:46.163Z,4.07
2023-03-28T03:26:18.450Z,3.00
2023-03-28T03:28:50.455Z,3.75
2023-03-28T03:31:23.361Z,3.50
2023-03-28T03:33:56.215Z,4.00
2023-03-28T03:36:30.526Z,4.20
2023-03-28T03:39:03.638Z,3.30
2023-03-28T03:41:36.362Z,3.70
2023-03-28T03:44:08.464Z,2.60
2023-03-28T03:46:40.610Z,3.60
2023-03-28T03:49:12.795Z,3.40
2023-03-28T03:51:44.975Z,3.45
2023-03-28T03:54:17.075Z,3.40
2023-03-28T03:56:49.483Z,3.10
2023-03-28T03:59:21.513Z,3.20
2023-03-28T04:01:53.674Z,3.28
2023-03-28T04:04:27.318Z,3.70
2023-03-28T04:06:59.501Z,3.38
2023-03-28T04:09:39.480Z,4.05
2023-03-28T04:12:11.923Z,3.60
2023-03-28T04:14:44.122Z,3.85
2023-03-28T04:17:16.303Z,3.38
2023-03-28T04:19:52.154Z,3.45
2023-03-28T04:22:30.061Z,4.15
2023-03-28T04:25:04.561Z,3.78
2023-03-28T04:27:39.532Z,3.78
2023-03-28T04:30:18.111Z,4.13
2023-03-28T04:32:54.518Z,3.80
2023-03-28T04:35:26.959Z,3.70
2023-03-28T04:38:00.461Z,3.55
2023-03-28T04:40:33.696Z,3.60
2023-03-28T04:43:05.916Z,3.83
2023-03-28T04:45:38.172Z,4.43
2023-03-28T04:48:10.672Z,3.25
2023-03-28T04:50:42.752Z,4.10
2023-03-28T04:53:16.121Z,3.75
2023-03-28T04:55:52.534Z,4.63
2023-03-28T04:58:24.969Z,3.00
2023-03-28T05:00:57.233Z,4.03
2023-03-28T05:03:33.871Z,3.28
2023-03-28T05:06:06.812Z,3.97
2023-03-28T05:08:39.276Z,3.80
2023-03-28T05:11:11.712Z,3.72
2023-03-28T05:13:43.944Z,4.00
2023-03-28T05:16:16.278Z,4.00
2023-03-28T05:18:48.443Z,3.85
2023-03-28T05:21:20.579Z,4.05
2023-03-28T05:23:53.088Z,3.90
2023-03-28T05:26:25.781Z,3.13
2023-03-28T05:29:00.440Z,3.75
2023-03-28T05:31:32.891Z,4.10
2023-03-28T05:34:05.736Z,3.90
2023-03-28T05:36:38.024Z,4.68
2023-03-28T05:39:10.205Z,3.15
2023-03-28T05:41:42.614Z,4.25
2023-03-28T05:44:16.868Z,3.30
2023-03-28T05:46:50.994Z,4.07
2023-03-28T05:49:23.093Z,3.83
2023-03-28T05:51:55.233Z,3.50
2023-03-28T05:54:27.233Z,4.15
2023-03-28T05:56:59.357Z,4.10
2023-03-28T05:59:32.539Z,3.72
2023-03-28T06:02:04.854Z,3.70
2023-03-28T06:04:42.632Z,3.72
2023-03-28T06:07:16.632Z,4.07
2023-03-28T06:09:48.852Z,4.35
2023-03-28T06:12:21.042Z,3.97
2023-03-28T06:14:53.288Z,4.20
2023-03-28T06:17:27.802Z,3.92
2023-03-28T06:20:00.182Z,4.50
2023-03-28T06:22:33.265Z,4.53
2023-03-28T06:25:08.929Z,4.30
2023-03-28T06:27:41.403Z,3.92
2023-03-28T06:30:14.336Z,4.30
2023-03-28T06:32:49.601Z,3.80
2023-03-28T06:35:22.185Z,3.85
2023-03-28T06:37:57.743Z,4.32
2023-03-28T06:40:30.100Z,3.78
2023-03-28T06:43:02.291Z,4.10
2023-03-28T06:45:34.605Z,4.60
2023-03-28T06:48:06.844Z,4.28
2023-03-28T06:50:38.992Z,3.97
2023-03-28T06:53:11.076Z,3.65
2023-03-28T06:55:43.477Z,3.67
2023-03-28T06:58:16.348Z,3.67
2023-03-28T07:00:52.726Z,3.80
2023-03-28T07:03:26.354Z,3.00
2023-03-28T07:06:07.376Z,3.22
2023-03-28T07:08:41.184Z,3.30
2023-03-28T07:11:13.279Z,3.30
2023-03-28T07:13:45.493Z,3.17
2023-03-28T07:16:18.003Z,2.80
2023-03-28T07:18:50.432Z,2.53
2023-03-28T07:21:22.619Z,3.22
2023-03-28T07:23:54.981Z,3.20
2023-03-28T07:26:27.702Z,3.10
2023-03-28T07:29:00.748Z,2.85
2023-03-28T07:31:33.632Z,2.75
2023-03-28T07:34:06.385Z,2.70
2023-03-28T07:36:40.078Z,2.90
2023-03-28T07:39:12.820Z,2.80
2023-03-28T07:41:49.667Z,1.98
2023-03-28T07:44:21.864Z,3.25
2023-03-28T07:46:54.735Z,2.83
2023-03-28T07:49:27.178Z,2.72
2023-03-28T07:52:02.560Z,3.10
2023-03-28T07:54:35.678Z,2.70
2023-03-28T07:57:09.087Z,2.85
2023-03-28T07:59:57.155Z,3.00
2023-03-28T08:02:30.004Z,3.00
2023-03-28T08:05:02.756Z,3.05
2023-03-28T08:07:36.228Z,2.85
2023-03-28T08:10:09.754Z,2.78
2023-03-28T08:12:43.549Z,3.10
2023-03-28T08:15:16.435Z,2.45
2023-03-28T08:17:49.092Z,3.40
2023-03-28T08:20:21.910Z,3.10
2023-03-28T08:22:54.324Z,3.10
2023-03-28T08:25:26.816Z,2.80
2023-03-28T08:28:00.510Z,3.35
2023-03-28T08:30:33.298Z,2.75
2023-03-28T08:33:05.827Z,3.30
2023-03-28T08:35:38.603Z,4.03
2023-03-28T08:38:11.434Z,2.72
2023-03-28T08:40:51.865Z,2.33
2023-03-28T08:43:48.164Z,2.28
2023-03-28T08:46:42.654Z,2.50
2023-03-28T08:49:22.871Z,2.50
2023-03-28T08:52:07.034Z,2.55
2023-03-28T08:54:50.162Z,2.50
2023-03-28T08:57:31.838Z,2.40
2023-03-28T09:00:17.648Z,2.97
2023-03-28T09:02:55.579Z,2.88
2023-03-28T09:05:51.978Z,3.00
2023-03-28T09:08:48.431Z,2.58
2023-03-28T09:11:41.745Z,3.10
2023-03-28T09:14:59.944Z,2.90
2023-03-28T09:18:12.220Z,3.00
2023-03-28T09:21:26.766Z,3.00
2023-03-28T09:24:29.757Z,2.45
2023-03-28T09:28:06.233Z,2.95
2023-03-28T09:31:05.754Z,2.55
2023-03-28T09:33:46.743Z,2.40
2023-03-28T09:36:24.830Z,2.20
2023-03-28T09:39:07.413Z,2.28
2023-03-28T09:42:02.677Z,3.00
2023-03-28T09:44:59.992Z,2.65
2023-03-28T09:47:38.868Z,2.50
2023-03-28T09:50:16.507Z,2.28
2023-03-28T09:52:53.514Z,2.60
2023-03-28T09:55:30.514Z,1.98
2023-03-28T09:58:08.381Z,2.28
2023-03-28T10:00:49.561Z,2.47
2023-03-28T10:03:33.424Z,3.00
2023-03-28T10:06:24.824Z,2.55
2023-03-28T10:09:20.274Z,2.60
2023-03-28T10:11:56.706Z,2.90
2023-03-28T10:14:48.906Z,2.20
2023-03-28T10:17:37.167Z,2.10
2023-03-28T10:20:23.549Z,3.30
2023-03-28T10:22:56.782Z,3.45
2023-03-28T10:25:46.070Z,2.40
2023-03-28T10:28:35.056Z,2.22
2023-03-28T10:31:19.828Z,2.15
2023-03-28T10:33:56.568Z,2.50
2023-03-28T10:36:34.061Z,2.85
2023-03-28T10:39:39.214Z,2.70
2023-03-28T10:42:11.930Z,2.50
2023-03-28T10:44:44.109Z,2.95
2023-03-28T10:47:30.826Z,3.05
2023-03-28T10:50:03.940Z,2.55
2023-03-28T10:52:48.140Z,2.22
2023-03-28T10:56:00.131Z,3.75
2023-03-28T10:59:29.903Z,2.85
2023-03-28T11:02:34.347Z,3.08
2023-03-28T11:06:05.835Z,2.55
2023-03-28T11:08:50.751Z,2.70
2023-03-28T11:11:49.654Z,2.72
2023-03-28T11:14:57.429Z,2.65
2023-03-28T11:17:57.475Z,2.55
2023-03-28T11:21:07.822Z,2.83
2023-03-28T11:24:08.970Z,2.65
2023-03-28T11:27:16.419Z,2.88
2023-03-28T11:30:05.538Z,2.65
2023-03-28T11:32:52.600Z,2.53
2023-03-28T11:36:15.145Z,2.72
2023-03-28T11:38:59.247Z,3.00
2023-03-28T11:41:41.670Z,2.42
2023-03-28T11:44:28.618Z,2.30
2023-03-28T11:47:28.596Z,2.50
2023-03-28T11:50:23.132Z,2.55
2023-03-28T11:53:38.809Z,2.45
2023-03-28T11:56:46.721Z,2.70
2023-03-28T11:59:39.535Z,3.17
2023-03-28T12:02:31.756Z,2.85
2023-03-28T12:05:50.667Z,2.60
2023-03-28T12:09:04.760Z,2.78
2023-03-28T12:12:06.432Z,2.38
2023-03-28T12:14:44.082Z,2.33
2023-03-28T12:17:42.252Z,2.60
2023-03-28T12:20:33.927Z,2.40
2023-03-28T12:23:26.989Z,2.60
2023-03-28T12:26:24.580Z,2.78
2023-03-28T12:29:58.296Z,2.40
2023-03-28T12:32:59.791Z,2.35
2023-03-28T12:35:52.862Z,2.85
2023-03-28T12:38:42.391Z,2.40
2023-03-28T12:41:36.465Z,2.40
2023-03-28T12:44:15.777Z,2.28
2023-03-28T12:47:04.713Z,2.35
2023-03-28T12:50:19.055Z,2.47
2023-03-28T12:53:00.344Z,2.15
2023-03-28T12:55:35.673Z,2.00
2023-03-28T12:58:36.230Z,2.60
2023-03-28T13:01:08.570Z,2.80
2023-03-28T13:04:18.503Z,2.70
2023-03-28T13:07:17.775Z,2.70
2023-03-28T13:10:29.691Z,2.50
2023-03-28T13:13:38.667Z,2.15
2023-03-28T13:16:59.987Z,2.50
2023-03-28T13:20:07.280Z,2.17
2023-03-28T13:23:01.662Z,2.50
2023-03-28T13:25:38.869Z,2.60
2023-03-28T13:28:13.277Z,2.40
2023-03-28T13:31:08.091Z,2.75
2023-03-28T13:33:49.592Z,2.00
2023-03-28T13:36:35.688Z,2.38
2023-03-28T13:39:23.405Z,2.20
2023-03-28T13:41:59.169Z,2.38
2023-03-28T13:44:39.182Z,2.35
2023-03-28T13:47:23.591Z,2.63
2023-03-28T13:50:17.850Z,2.95
2023-03-28T13:52:55.396Z,2.20
2023-03-28T13:55:28.365Z,2.55
2023-03-28T13:58:01.808Z,2.65
2023-03-28T14:00:34.529Z,2.50
2023-03-28T14:03:15.494Z,2.50
2023-03-28T14:05:48.028Z,2.42
2023-03-28T14:08:22.663Z,2.33
2023-03-28T14:10:57.267Z,2.22
2023-03-28T14:13:31.770Z,2.40
2023-03-28T14:16:07.701Z,2.40
2023-03-28T14:19:05.834Z,2.40
2023-03-28T14:21:40.762Z,2.10
2023-03-28T14:24:24.041Z,2.30
2023-03-28T14:27:12.633Z,2.45
2023-03-28T14:30:00.526Z,2.55
2023-03-28T14:32:35.112Z,2.30
2023-03-28T14:35:24.904Z,2.60
2023-03-28T14:38:06.684Z,2.20
2023-03-28T14:40:46.184Z,2.60
2023-03-28T14:43:37.297Z,2.60
2023-03-28T14:46:11.393Z,2.50
2023-03-28T14:48:45.049Z,2.42
2023-03-28T14:51:17.586Z,2.15
2023-03-28T14:53:52.099Z,1.80
2023-03-28T14:56:28.593Z,2.40
2023-03-28T14:59:04.442Z,2.20
2023-03-28T15:01:38.916Z,2.38
2023-03-28T15:04:13.999Z,1.90
2023-03-28T15:06:55.689Z,3.40
2023-03-28T15:09:33.973Z,2.20
2023-03-28T15:12:09.279Z,2.20
2023-03-28T15:14:46.839Z,2.00
2023-03-28T15:17:22.548Z,2.55
2023-03-28T15:20:00.032Z,1.85
2023-03-28T15:22:37.022Z,2.00
2023-03-28T15:25:14.601Z,2.00
2023-03-28T15:27:52.896Z,1.98
2023-03-28T15:30:34.640Z,2.10
2023-03-28T15:33:20.419Z,2.30
2023-03-28T15:36:08.747Z,2.40
2023-03-28T15:38:59.378Z,2.20
2023-03-28T15:41:42.498Z,2.00
2023-03-28T15:44:32.548Z,2.03
2023-03-28T15:47:13.359Z,2.03
2023-03-28T15:49:50.731Z,2.05
2023-03-28T15:52:27.067Z,2.22
2023-03-28T15:55:01.876Z,2.20
2023-03-28T15:57:36.723Z,1.83
2023-03-28T16:00:43.008Z,2.28
2023-03-28T16:03:21.018Z,2.20
2023-03-28T16:06:17.654Z,2.10
2023-03-28T16:09:18.310Z,2.38
2023-03-28T16:12:03.151Z,2.00
2023-03-28T16:14:36.352Z,2.13
2023-03-28T16:17:10.685Z,2.40
2023-03-28T16:19:46.045Z,2.08
2023-03-28T16:22:21.279Z,2.00
2023-03-28T16:24:55.906Z,2.15
2023-03-28T16:27:28.468Z,1.92
2023-03-28T16:30:01.813Z,2.22
2023-03-28T16:32:36.250Z,2.13
2023-03-28T16:35:10.808Z,2.10
2023-03-28T16:37:43.346Z,2.15
2023-03-28T16:40:16.907Z,2.85
2023-03-28T16:42:52.910Z,2.55
2023-03-28T16:45:26.508Z,2.13
2023-03-28T16:47:59.822Z,3.55
2023-03-28T16:50:33.139Z,3.28
2023-03-28T16:53:06.784Z,2.58
2023-03-28T16:55:39.564Z,2.15
2023-03-28T16:58:12.016Z,2.60
2023-03-28T17:00:44.764Z,2.10
2023-03-28T17:03:18.308Z,2.42
2023-03-28T17:05:52.764Z,2.20
2023-03-28T17:08:25.777Z,2.25
2023-03-28T17:11:00.749Z,2.15
2023-03-28T17:13:34.471Z,2.30
2023-03-28T17:16:11.452Z,2.40
2023-03-28T17:18:44.906Z,2.25
2023-03-28T17:21:19.149Z,2.25
2023-03-28T17:23:57.918Z,2.70
2023-03-28T17:26:30.861Z,2.90
2023-03-28T17:29:05.463Z,3.10
2023-03-28T17:31:42.082Z,2.88
2023-03-28T17:34:20.084Z,4.03
2023-03-28T17:36:53.461Z,4.28
2023-03-28T17:39:26.447Z,2.55
2023-03-28T17:42:00.195Z,3.13
2023-03-28T17:44:32.976Z,3.40
2023-03-28T17:47:06.046Z,2.80
2023-03-28T17:49:39.241Z,3.60
2023-03-28T17:52:12.133Z,4.30
2023-03-28T17:54:45.808Z,5.00
2023-03-28T17:57:21.870Z,4.13
2023-03-28T17:59:54.807Z,3.70
2023-03-28T18:02:27.812Z,4.05
2023-03-28T18:05:01.416Z,3.90
2023-03-28T18:07:35.488Z,3.97
2023-03-28T18:10:12.929Z,3.90
2023-03-28T18:12:45.747Z,3.70
2023-03-28T18:15:19.322Z,4.13
2023-03-28T18:17:53.948Z,3.95
2023-03-28T18:20:27.253Z,4.07
2023-03-28T18:23:02.427Z,3.88
2023-03-28T18:25:39.238Z,3.95
2023-03-28T18:28:15.142Z,3.72
2023-03-28T18:30:48.539Z,5.05
2023-03-28T18:33:22.807Z,3.45
2023-03-28T18:35:55.835Z,3.95
2023-03-28T18:38:28.490Z,4.15
2023-03-28T18:41:08.476Z,4.22
2023-03-28T18:43:43.502Z,3.88
2023-03-28T18:46:18.917Z,3.83
2023-03-28T18:48:54.475Z,4.65
2023-03-28T18:51:29.834Z,3.80
2023-03-28T18:54:04.118Z,3.75
2023-03-28T18:56:38.287Z,3.55
2023-03-28T18:59:12.736Z,4.30
2023-03-28T19:01:51.747Z,3.92
2023-03-28T19:04:27.086Z,3.95
2023-03-28T19:07:00.783Z,3.90
2023-03-28T19:09:34.448Z,3.67
2023-03-28T19:12:08.941Z,4.32
2023-03-28T19:14:43.029Z,3.83
2023-03-28T19:17:17.646Z,3.55
2023-03-28T19:19:51.850Z,3.38
2023-03-28T19:22:25.481Z,3.65
2023-03-28T19:24:59.902Z,3.88
2023-03-28T19:27:33.894Z,3.65
2023-03-28T19:30:09.386Z,3.90
2023-03-28T19:32:42.674Z,4.10
2023-03-28T19:35:17.265Z,4.40
2023-03-28T19:38:03.927Z,3.72
2023-03-28T19:40:37.744Z,8.35
2023-03-28T19:43:11.510Z,4.03
2023-03-28T19:45:44.856Z,14.27
2023-03-28T19:48:18.738Z,9.57
2023-03-28T19:50:52.921Z,7.53
2023-03-28T19:53:26.616Z,5.05
2023-03-28T19:56:01.824Z,3.22
2023-03-28T19:58:36.511Z,3.90
2023-03-28T20:01:09.605Z,3.25
2023-03-28T20:03:43.778Z,3.35
2023-03-28T20:06:17.736Z,3.83
2023-03-28T20:08:53.456Z,3.70
2023-03-28T20:11:27.101Z,2.97
2023-03-28T20:14:03.275Z,3.28
2023-03-28T20:16:36.935Z,3.85
2023-03-28T20:19:11.277Z,3.90
2023-03-28T20:21:45.460Z,3.50
2023-03-28T20:24:18.667Z,4.35
2023-03-28T20:26:52.188Z,3.78
2023-03-28T20:29:25.482Z,3.95
2023-03-28T20:31:59.374Z,4.00
2023-03-28T20:34:33.292Z,3.58
2023-03-28T20:37:07.526Z,3.65
2023-03-28T20:39:42.089Z,3.75
2023-03-28T20:42:20.010Z,3.70
2023-03-28T20:44:52.892Z,3.40
2023-03-28T20:47:29.245Z,3.85
2023-03-28T20:50:05.974Z,3.33
2023-03-28T20:52:41.663Z,3.13
2023-03-28T20:55:15.373Z,3.10
2023-03-28T20:57:48.187Z,3.25
2023-03-28T21:00:23.691Z,3.15
2023-03-28T21:02:57.056Z,3.33
2023-03-28T21:05:30.619Z,2.92
2023-03-28T21:08:08.820Z,3.30
2023-03-28T21:10:41.585Z,3.00
2023-03-28T21:13:15.133Z,2.88
2023-03-28T21:15:51.869Z,4.03
2023-03-28T21:18:25.499Z,3.00
2023-03-28T21:20:59.330Z,4.35
2023-03-28T21:23:32.431Z,4.45
2023-03-28T21:26:07.203Z,3.85
2023-03-28T21:28:42.786Z,3.45
2023-03-28T21:31:21.148Z,3.63
2023-03-28T21:33:58.772Z,3.50
2023-03-28T21:36:32.170Z,3.28
2023-03-28T21:39:05.551Z,3.15
2023-03-28T21:41:39.036Z,3.15
2023-03-28T21:44:11.833Z,3.10
2023-03-28T21:46:44.172Z,5.45
2023-03-28T21:49:18.215Z,3.53
2023-03-28T21:51:50.525Z,3.17
2023-03-28T21:54:23.729Z,3.50
2023-03-28T21:56:56.565Z,3.40
2023-03-28T21:59:29.996Z,2.90
2023-03-28T22:02:02.419Z,3.35
2023-03-28T22:04:36.883Z,3.10
2023-03-28T22:07:12.085Z,3.30
2023-03-28T22:09:44.842Z,3.20
2023-03-28T22:12:36.822Z,4.03
2023-03-28T22:15:13.966Z,4.00
2023-03-28T22:17:46.234Z,4.20
2023-03-28T22:20:38.681Z,3.17
2023-03-28T22:23:11.766Z,2.65
2023-03-28T22:25:44.951Z,2.55
2023-03-28T22:28:19.001Z,2.80
2023-03-28T22:30:56.618Z,4.35
2023-03-28T22:33:32.192Z,2.72
2023-03-28T22:36:05.016Z,2.10
2023-03-28T22:38:37.905Z,2.00
2023-03-28T22:41:11.153Z,2.03
2023-03-28T22:43:44.084Z,2.75
2023-03-28T22:46:18.347Z,3.35
2023-03-28T22:48:58.663Z,2.70
2023-03-28T22:51:31.452Z,2.75
2023-03-28T22:54:06.111Z,2.97
2023-03-28T22:56:38.271Z,3.00
2023-03-28T22:59:11.631Z,2.92
2023-03-28T23:01:45.541Z,2.40
2023-03-28T23:04:18.156Z,2.42
2023-03-28T23:06:50.661Z,2.38
2023-03-28T23:09:26.529Z,2.38
2023-03-28T23:12:01.009Z,2.40
2023-03-28T23:14:33.290Z,2.78
2023-03-28T23:17:06.430Z,2.80
2023-03-28T23:19:40.814Z,3.08
2023-03-28T23:22:13.530Z,3.00
2023-03-28T23:24:51.636Z,3.25
2023-03-28T23:27:23.612Z,2.85
2023-03-28T23:29:56.092Z,2.72
2023-03-28T23:32:28.274Z,2.03
2023-03-28T23:35:00.721Z,2.63
2023-03-28T23:37:34.089Z,2.35
2023-03-28T23:40:14.871Z,2.55
2023-03-28T23:42:47.644Z,2.55
2023-03-28T23:45:19.861Z,2.47
2023-03-28T23:47:52.109Z,2.25
2023-03-28T23:50:24.097Z,2.63
2023-03-28T23:52:57.130Z,3.10
2023-03-28T23:55:31.388Z,2.70
2023-03-28T23:58:04.683Z,2.83
